Time;durP1;ratioP1;P1;durP2;ratioP2;P2;SDS_P1;SDS_P2;PMS_P1;PMS_P2;Temp;Humidity;BMP_temperature;BMP_pressure;BME280_temperature;BME280_humidity;BME280_pressure;Samples;Min_cycle;Max_cycle;Signal;HPM_P1;HPM_P2
2021/12/08 00:00:36;;;;;;;46.33;25.33;;;1.00;99.90;;;;;;5002588;28;20320;-82
2021/12/08 00:03:03;;;;;;;44.17;26.10;;;1.00;99.90;;;;;;5018793;28;20641;-82
2021/12/08 00:05:30;;;;;;;44.93;26.17;;;1.00;99.90;;;;;;5020091;28;20198;-83
2021/12/08 00:07:57;;;;;;;46.30;26.30;;;0.90;99.90;;;;;;5021281;28;20185;-83
2021/12/08 00:13:05;;;;;;;46.97;25.83;;;1.00;99.90;;;;;;5035110;28;20225;-83
2021/12/08 00:15:35;;;;;;;50.03;26.00;;;1.00;99.90;;;;;;5003683;28;20209;-81
2021/12/08 00:18:04;;;;;;;47.83;25.53;;;1.00;99.90;;;;;;5004390;28;20220;-83
2021/12/08 00:20:32;;;;;;;42.07;23.03;;;1.00;99.90;;;;;;4998987;28;20253;-83
2021/12/08 00:22:59;;;;;;;50.10;26.77;;;0.90;99.90;;;;;;5000189;28;20180;-82
2021/12/08 00:25:24;;;;;;;50.50;26.53;;;0.90;99.90;;;;;;5003691;28;20276;-81
2021/12/08 00:27:52;;;;;;;44.80;25.67;;;0.90;99.90;;;;;;5000370;28;20613;-82
2021/12/08 00:30:18;;;;;;;46.03;25.10;;;1.00;99.90;;;;;;5005762;28;20182;-82
2021/12/08 00:32:46;;;;;;;49.53;26.03;;;0.90;99.90;;;;;;5001902;28;20190;-81
2021/12/08 00:35:12;;;;;;;46.13;24.97;;;0.90;99.90;;;;;;5020982;28;20190;-82
2021/12/08 00:37:39;;;;;;;48.83;26.07;;;0.90;99.90;;;;;;5004450;28;20190;-83
2021/12/08 00:40:08;;;;;;;48.40;26.40;;;0.90;99.90;;;;;;5022261;28;20181;-81
2021/12/08 00:42:34;;;;;;;48.33;25.93;;;1.00;99.90;;;;;;5017476;28;20177;-82
2021/12/08 00:45:00;;;;;;;45.03;25.63;;;1.00;99.90;;;;;;5018601;28;20197;-83
2021/12/08 00:47:26;;;;;;;44.50;26.13;;;1.00;99.90;;;;;;5002718;28;20261;-83
2021/12/08 00:49:55;;;;;;;48.97;26.87;;;1.00;99.90;;;;;;5002924;28;20181;-83
2021/12/08 00:52:20;;;;;;;49.60;25.80;;;1.00;99.90;;;;;;5019810;28;20256;-83
2021/12/08 00:54:46;;;;;;;44.90;24.10;;;0.90;99.90;;;;;;5014691;28;20222;-83
2021/12/08 00:57:15;;;;;;;46.37;25.43;;;0.90;99.90;;;;;;5008584;28;20197;-83
2021/12/08 00:59:41;;;;;;;44.73;24.10;;;1.00;99.90;;;;;;5006980;28;20192;-83
2021/12/08 01:02:08;;;;;;;42.20;23.97;;;1.10;99.90;;;;;;5019186;28;20170;-82
2021/12/08 01:04:35;;;;;;;45.13;25.13;;;1.10;99.90;;;;;;5017813;28;20254;-82
2021/12/08 01:07:03;;;;;;;42.40;24.57;;;1.10;99.90;;;;;;5016816;28;20568;-83
2021/12/08 01:09:32;;;;;;;44.30;24.83;;;1.20;99.90;;;;;;5023028;28;20181;-82
2021/12/08 01:12:01;;;;;;;45.13;24.93;;;1.20;99.90;;;;;;5022111;28;20178;-82
2021/12/08 01:14:34;;;;;;;45.07;24.70;;;1.20;99.90;;;;;;5002236;28;20278;-82
2021/12/08 01:17:02;;;;;;;43.77;25.07;;;1.20;99.90;;;;;;5006009;28;20206;-79
2021/12/08 01:19:28;;;;;;;49.73;26.23;;;1.10;99.90;;;;;;5006335;28;20178;-83
2021/12/08 01:21:56;;;;;;;48.00;25.40;;;1.10;99.90;;;;;;5021091;28;20175;-82
2021/12/08 01:24:22;;;;;;;46.97;25.50;;;1.20;99.90;;;;;;5021078;28;20297;-83
2021/12/08 01:26:48;;;;;;;44.07;24.40;;;1.10;99.90;;;;;;4988908;28;20202;-83
2021/12/08 01:29:14;;;;;;;45.93;24.53;;;1.10;99.90;;;;;;5004827;28;20645;-83
2021/12/08 01:31:44;;;;;;;43.57;22.83;;;1.20;99.90;;;;;;4987237;28;20182;-83
2021/12/08 01:34:11;;;;;;;42.40;23.63;;;1.20;99.90;;;;;;5003506;28;20202;-83
2021/12/08 01:36:38;;;;;;;47.53;25.53;;;1.20;99.90;;;;;;5003901;28;20265;-82
2021/12/08 01:39:05;;;;;;;45.07;24.97;;;1.20;99.90;;;;;;4976979;28;20180;-82
2021/12/08 01:41:31;;;;;;;38.13;22.50;;;1.20;99.90;;;;;;4979544;28;20178;-81
2021/12/08 01:46:41;;;;;;;42.53;23.03;;;1.20;99.90;;;;;;5017202;28;20638;-82
2021/12/08 01:49:07;;;;;;;44.30;24.67;;;1.20;99.90;;;;;;4986250;28;20752;-82
2021/12/08 01:51:33;;;;;;;44.10;23.07;;;1.20;99.90;;;;;;4981620;28;20182;-81
2021/12/08 01:54:01;;;;;;;42.83;24.23;;;1.20;99.90;;;;;;4988278;28;20210;-83
2021/12/08 01:56:29;;;;;;;44.00;24.37;;;1.20;99.90;;;;;;5004249;28;20202;-82
2021/12/08 01:58:55;;;;;;;44.23;22.93;;;1.20;99.90;;;;;;4986175;28;20194;-82
2021/12/08 02:01:25;;;;;;;36.53;21.77;;;1.20;99.90;;;;;;5011302;28;20174;-82
2021/12/08 02:03:53;;;;;;;39.50;21.87;;;1.30;99.90;;;;;;5000004;28;20247;-82
2021/12/08 02:06:21;;;;;;;43.90;23.70;;;1.20;99.90;;;;;;4998237;28;20181;-82
2021/12/08 02:08:52;;;;;;;39.93;22.37;;;1.30;99.90;;;;;;5035598;28;20187;-82
2021/12/08 02:11:20;;;;;;;42.70;23.70;;;1.30;99.90;;;;;;5015696;28;20227;-82
2021/12/08 02:13:46;;;;;;;43.97;23.90;;;1.30;99.90;;;;;;5003699;28;20237;-82
2021/12/08 02:16:15;;;;;;;40.13;22.00;;;1.30;99.90;;;;;;4988072;28;20198;-82
2021/12/08 02:18:45;;;;;;;42.67;24.33;;;1.40;99.90;;;;;;4986734;28;20197;-82
2021/12/08 02:21:25;;;;;;;41.77;24.07;;;1.30;99.90;;;;;;5000448;28;20246;-82
2021/12/08 02:23:51;;;;;;;42.50;23.27;;;1.30;99.90;;;;;;4996053;28;20174;-82
2021/12/08 02:26:17;;;;;;;38.00;22.03;;;1.40;99.90;;;;;;5040474;28;20200;-82
2021/12/08 02:28:45;;;;;;;40.23;23.33;;;1.30;99.90;;;;;;5019058;28;20206;-83
2021/12/08 02:31:14;;;;;;;37.33;21.93;;;1.30;99.90;;;;;;4995727;28;20177;-81
2021/12/08 02:47:44;;;;;;;39.13;20.87;;;1.50;99.90;;;;;;5053210;28;20166;-79
2021/12/08 02:50:11;;;;;;;32.97;19.37;;;1.50;99.90;;;;;;5014609;28;20588;-81
2021/12/08 02:52:37;;;;;;;35.13;20.30;;;1.50;99.90;;;;;;5029440;28;20197;-82
2021/12/08 02:55:07;;;;;;;30.07;18.37;;;1.60;99.90;;;;;;5031510;28;20205;-81
2021/12/08 02:57:34;;;;;;;31.30;19.40;;;1.60;99.90;;;;;;5016955;28;20178;-79
2021/12/08 03:00:00;;;;;;;31.47;19.20;;;1.70;99.90;;;;;;5028746;28;20209;-80
2021/12/08 03:02:26;;;;;;;32.13;18.80;;;1.70;99.90;;;;;;5038477;28;20182;-80
2021/12/08 03:04:51;;;;;;;32.00;18.17;;;1.60;99.90;;;;;;5026673;28;20198;-80
2021/12/08 03:07:18;;;;;;;31.33;18.63;;;1.60;99.90;;;;;;5028768;28;20243;-80
2021/12/08 03:09:43;;;;;;;32.30;19.03;;;1.60;99.90;;;;;;5010550;28;20202;-80
2021/12/08 03:12:09;;;;;;;30.67;18.03;;;1.60;99.90;;;;;;5029677;28;20174;-79
2021/12/08 03:14:35;;;;;;;27.13;17.97;;;1.60;99.90;;;;;;5009633;28;20209;-82
2021/12/08 03:17:07;;;;;;;28.07;17.33;;;1.60;99.90;;;;;;5004002;28;20222;-81
2021/12/08 03:19:35;;;;;;;29.03;17.47;;;1.70;99.90;;;;;;5028939;28;20253;-82
2021/12/08 03:22:08;;;;;;;32.07;17.70;;;1.70;99.90;;;;;;5006867;28;20211;-82
2021/12/08 03:24:37;;;;;;;30.77;18.63;;;1.70;99.90;;;;;;5016565;28;20205;-78
2021/12/08 03:27:16;;;;;;;33.10;18.00;;;1.70;99.90;;;;;;5002868;28;20191;-82
2021/12/08 03:32:16;;;;;;;30.90;17.23;;;1.80;99.90;;;;;;5025304;28;20213;-82
2021/12/08 03:34:52;;;;;;;31.07;16.87;;;1.80;99.90;;;;;;5008763;28;20202;-81
2021/12/08 03:37:33;;;;;;;30.77;17.83;;;1.80;99.90;;;;;;5026123;28;20198;-80
2021/12/08 03:40:04;;;;;;;29.30;15.43;;;1.80;99.90;;;;;;5015199;28;20186;-82
2021/12/08 03:42:34;;;;;;;28.93;16.63;;;1.80;99.90;;;;;;5005845;28;20170;-82
2021/12/08 03:45:03;;;;;;;28.40;17.23;;;1.80;99.90;;;;;;5018739;28;20206;-83
2021/12/08 03:47:29;;;;;;;26.03;16.07;;;1.80;99.90;;;;;;5018735;28;20185;-82
2021/12/08 03:49:59;;;;;;;29.00;16.73;;;1.90;99.90;;;;;;5004446;28;20720;-82
2021/12/08 03:52:26;;;;;;;25.33;15.07;;;1.90;99.90;;;;;;5012773;28;20209;-82
2021/12/08 03:54:52;;;;;;;28.80;15.77;;;2.00;99.90;;;;;;5020532;28;20229;-83
2021/12/08 03:57:17;;;;;;;24.70;14.33;;;2.00;99.90;;;;;;4989645;28;20570;-82
2021/12/08 03:59:43;;;;;;;24.53;14.73;;;2.00;99.90;;;;;;4987422;28;20175;-82
2021/12/08 04:02:09;;;;;;;25.87;15.50;;;2.00;99.90;;;;;;4999618;28;20178;-82
2021/12/08 04:04:46;;;;;;;25.33;14.33;;;2.10;99.90;;;;;;5005122;28;20194;-82
2021/12/08 04:07:14;;;;;;;25.63;14.37;;;2.10;99.90;;;;;;5021131;28;20629;-82
2021/12/08 04:09:43;;;;;;;23.23;14.33;;;2.10;99.90;;;;;;5004395;28;20242;-82
2021/12/08 04:12:11;;;;;;;22.53;14.10;;;2.10;99.90;;;;;;5006361;28;20710;-82
2021/12/08 04:14:49;;;;;;;23.83;14.40;;;2.10;99.90;;;;;;5006953;28;20205;-82
2021/12/08 04:17:24;;;;;;;21.30;13.93;;;2.10;99.90;;;;;;5006138;28;20193;-81
2021/12/08 04:19:51;;;;;;;22.23;13.80;;;2.10;99.90;;;;;;5019527;28;20170;-81
2021/12/08 04:22:24;;;;;;;24.17;14.00;;;2.10;99.90;;;;;;5005949;28;20174;-81
2021/12/08 04:24:51;;;;;;;19.97;13.00;;;2.10;99.90;;;;;;5061233;23;20319;-78
2021/12/08 04:27:22;;;;;;;22.60;13.40;;;2.30;99.90;;;;;;5034882;28;20216;-78
2021/12/08 04:29:48;;;;;;;20.53;13.00;;;2.30;99.90;;;;;;5074080;28;20192;-79
2021/12/08 04:32:16;;;;;;;21.40;13.23;;;2.30;99.90;;;;;;5037312;28;20180;-78
2021/12/08 04:34:49;;;;;;;22.60;12.67;;;2.30;99.90;;;;;;5043354;28;20215;-79
2021/12/08 04:37:27;;;;;;;23.53;12.87;;;2.20;99.90;;;;;;5060311;28;20205;-78
2021/12/08 04:40:20;;;;;;;22.70;14.00;;;2.10;99.90;;;;;;5040318;28;20237;-78
2021/12/08 04:45:24;;;;;;;26.77;15.37;;;1.70;99.90;;;;;;5077774;28;20203;-78
2021/12/08 04:50:39;;;;;;;27.07;16.47;;;1.40;99.90;;;;;;5070651;28;20177;-78
2021/12/08 05:09:36;;;;;;;34.37;18.67;;;0.70;99.90;;;;;;5079700;28;20233;-79
2021/12/08 05:12:15;;;;;;;28.63;18.03;;;0.70;99.90;;;;;;5059432;28;20179;-78
2021/12/08 05:14:46;;;;;;;35.23;19.03;;;0.60;99.90;;;;;;5059275;28;20200;-78
2021/12/08 05:17:19;;;;;;;31.33;19.80;;;0.60;99.90;;;;;;5062108;28;20203;-78
2021/12/08 05:19:48;;;;;;;29.70;18.60;;;0.60;99.90;;;;;;5078595;28;20305;-80
2021/12/08 05:22:28;;;;;;;34.47;20.53;;;0.60;99.90;;;;;;5055055;28;20217;-79
2021/12/08 05:24:56;;;;;;;35.70;20.97;;;0.60;99.90;;;;;;5063574;28;20219;-81
2021/12/08 05:27:38;;;;;;;37.53;20.30;;;0.60;99.90;;;;;;5058103;28;20199;-81
2021/12/08 05:30:09;;;;;;;32.33;20.40;;;0.60;99.90;;;;;;5077293;28;20173;-80
2021/12/08 05:32:36;;;;;;;38.77;22.57;;;0.60;99.90;;;;;;5053999;28;20184;-81
2021/12/08 05:35:04;;;;;;;36.67;22.50;;;0.60;99.90;;;;;;5077943;28;20242;-79
2021/12/08 05:37:30;;;;;;;44.00;23.83;;;0.60;99.90;;;;;;5056803;28;20196;-79
2021/12/08 05:39:56;;;;;;;37.60;22.17;;;0.60;99.90;;;;;;5064703;28;20217;-80
2021/12/08 05:42:33;;;;;;;38.67;20.87;;;0.60;99.90;;;;;;5059135;28;20172;-79
2021/12/08 05:44:59;;;;;;;35.57;22.10;;;0.60;99.90;;;;;;5056025;28;20191;-80
2021/12/08 05:47:29;;;;;;;37.17;21.47;;;0.50;99.90;;;;;;5077414;28;20180;-80
2021/12/08 05:49:56;;;;;;;36.07;21.63;;;0.40;99.90;;;;;;5072667;28;20215;-80
2021/12/08 05:52:23;;;;;;;38.60;22.63;;;0.40;99.90;;;;;;5066318;28;20177;-80
2021/12/08 05:54:50;;;;;;;41.93;22.03;;;0.40;99.90;;;;;;5060050;28;20197;-80
2021/12/08 05:57:30;;;;;;;40.40;22.67;;;0.40;99.90;;;;;;5056940;28;20225;-79
2021/12/08 05:59:56;;;;;;;41.70;23.00;;;0.30;99.90;;;;;;5061563;28;20180;-80
2021/12/08 06:02:31;;;;;;;42.70;23.73;;;0.30;99.90;;;;;;5075612;28;20175;-80
2021/12/08 06:05:03;;;;;;;37.87;22.40;;;0.20;99.90;;;;;;5053743;28;20202;-80
2021/12/08 06:07:29;;;;;;;37.83;22.87;;;0.20;99.90;;;;;;5091186;28;20180;-81
2021/12/08 06:09:58;;;;;;;44.53;21.70;;;0.20;99.90;;;;;;5085910;28;20316;-80
2021/12/08 06:12:27;;;;;;;44.10;23.23;;;0.20;99.90;;;;;;5061034;28;20243;-80
2021/12/08 06:14:55;;;;;;;42.13;23.97;;;0.10;99.90;;;;;;5057571;28;20251;-79
2021/12/08 06:17:27;;;;;;;43.33;24.27;;;0.10;99.90;;;;;;5082753;28;20227;-79
2021/12/08 06:19:53;;;;;;;49.67;26.43;;;0.10;99.90;;;;;;5049930;28;20222;-80
2021/12/08 06:22:21;;;;;;;46.23;26.27;;;0.10;99.90;;;;;;5063498;28;20175;-79
2021/12/08 06:24:47;;;;;;;48.43;25.63;;;0.10;99.90;;;;;;5052329;28;20268;-80
2021/12/08 06:27:13;;;;;;;47.90;26.03;;;0.10;99.90;;;;;;5055612;28;20168;-79
2021/12/08 06:29:43;;;;;;;53.37;26.33;;;0.20;99.90;;;;;;5046052;28;20181;-79
2021/12/08 06:32:11;;;;;;;52.83;26.90;;;0.20;99.90;;;;;;5074162;28;20200;-80
2021/12/08 06:34:39;;;;;;;53.63;26.67;;;0.10;99.90;;;;;;5066772;28;20252;-80
2021/12/08 06:37:15;;;;;;;50.00;24.63;;;0.10;99.90;;;;;;5058367;28;20204;-79
2021/12/08 06:39:46;;;;;;;48.10;25.90;;;0.20;99.90;;;;;;5076819;28;20168;-80
2021/12/08 06:42:16;;;;;;;50.03;26.87;;;0.20;99.90;;;;;;5065722;28;20168;-79
2021/12/08 06:44:45;;;;;;;50.00;26.13;;;0.20;99.90;;;;;;5080656;28;20192;-79
2021/12/08 06:47:16;;;;;;;46.00;25.30;;;0.20;99.90;;;;;;5057721;28;20171;-79
2021/12/08 06:49:45;;;;;;;47.43;27.07;;;0.30;99.90;;;;;;5075470;28;20184;-77
2021/12/08 06:52:22;;;;;;;53.60;26.80;;;0.30;99.90;;;;;;5069351;28;20165;-78
2021/12/08 06:54:59;;;;;;;50.10;26.67;;;0.30;99.90;;;;;;5085024;28;20200;-80
2021/12/08 06:57:52;;;;;;;50.20;24.53;;;0.30;99.90;;;;;;5074438;28;20207;-79
2021/12/08 07:00:35;;;;;;;52.13;27.07;;;0.30;99.90;;;;;;5076214;28;20243;-80
2021/12/08 07:06:08;;;;;;;53.13;27.17;;;0.30;99.90;;;;;;5057341;28;20679;-79
2021/12/08 07:08:44;;;;;;;52.33;27.13;;;0.20;99.90;;;;;;5059975;28;20176;-80
2021/12/08 07:11:12;;;;;;;53.60;26.90;;;0.30;99.90;;;;;;5080942;28;20176;-79
2021/12/08 07:13:38;;;;;;;50.87;27.27;;;0.40;99.90;;;;;;5080956;28;20201;-81
2021/12/08 07:16:17;;;;;;;53.03;26.73;;;0.40;99.90;;;;;;5076491;28;20655;-80
2021/12/08 07:18:58;;;;;;;48.63;25.90;;;0.40;99.90;;;;;;5073208;28;20169;-81
2021/12/08 07:21:33;;;;;;;47.60;25.97;;;0.40;99.90;;;;;;5088235;28;20180;-80
2021/12/08 07:24:05;;;;;;;47.20;27.20;;;0.50;99.90;;;;;;5080555;28;20178;-80
2021/12/08 07:26:37;;;;;;;45.80;26.17;;;0.50;99.90;;;;;;5077284;28;20191;-81
2021/12/08 07:29:05;;;;;;;50.67;25.77;;;0.40;99.90;;;;;;5061624;28;20291;-81
2021/12/08 07:31:44;;;;;;;50.20;25.97;;;0.50;99.90;;;;;;5064938;28;20183;-79
2021/12/08 07:34:15;;;;;;;43.87;24.83;;;0.50;99.90;;;;;;5052099;28;20184;-79
2021/12/08 07:36:47;;;;;;;43.43;25.13;;;0.50;99.90;;;;;;5060303;28;20735;-79
2021/12/08 07:39:19;;;;;;;46.43;26.07;;;0.50;99.90;;;;;;5045330;28;20172;-79
2021/12/08 07:41:53;;;;;;;44.27;24.37;;;0.50;99.90;;;;;;5074964;28;20180;-80
2021/12/08 07:44:22;;;;;;;45.50;25.43;;;0.60;99.90;;;;;;5052573;28;20785;-79
2021/12/08 07:46:53;;;;;;;43.17;25.00;;;0.70;99.90;;;;;;5054798;28;20560;-80
2021/12/08 07:49:24;;;;;;;42.43;24.77;;;0.60;99.90;;;;;;5066564;28;20191;-80
2021/12/08 07:52:10;;;;;;;40.47;22.27;;;0.60;99.90;;;;;;5072742;28;20180;-79
2021/12/08 07:54:37;;;;;;;43.17;24.27;;;0.70;99.90;;;;;;5073216;28;20200;-79
2021/12/08 07:57:07;;;;;;;42.67;24.17;;;0.60;99.90;;;;;;5056545;28;20203;-80
2021/12/08 07:59:36;;;;;;;43.77;24.43;;;0.60;99.90;;;;;;5069669;28;20184;-80
2021/12/08 08:02:07;;;;;;;42.50;25.10;;;0.70;99.90;;;;;;5066288;28;20182;-80
2021/12/08 08:04:41;;;;;;;42.07;24.37;;;0.80;99.90;;;;;;5068310;28;20268;-81
2021/12/08 08:07:09;;;;;;;42.00;24.57;;;0.80;99.90;;;;;;5071167;28;20258;-80
2021/12/08 08:09:43;;;;;;;44.50;25.67;;;0.80;99.90;;;;;;5068821;28;20531;-80
2021/12/08 08:12:18;;;;;;;38.73;23.40;;;0.80;99.90;;;;;;5063576;28;20205;-81
2021/12/08 08:14:51;;;;;;;40.80;24.40;;;0.80;99.90;;;;;;5069135;28;20210;-81
2021/12/08 08:17:36;;;;;;;41.73;24.20;;;0.90;99.90;;;;;;5054640;28;20780;-81
2021/12/08 08:20:10;;;;;;;43.00;24.53;;;0.80;99.90;;;;;;5059080;28;20172;-80
2021/12/08 08:22:36;;;;;;;40.90;22.30;;;0.90;99.90;;;;;;5063039;28;20200;-80
2021/12/08 08:25:06;;;;;;;37.83;23.27;;;0.90;99.90;;;;;;5054108;28;20207;-79
2021/12/08 08:27:32;;;;;;;37.03;22.53;;;0.90;99.90;;;;;;5061251;28;20184;-79
2021/12/08 08:29:58;;;;;;;41.27;23.63;;;0.90;99.90;;;;;;5058172;28;20172;-79
2021/12/08 08:32:31;;;;;;;35.63;21.97;;;0.90;99.90;;;;;;5050580;28;20188;-79
2021/12/08 08:35:12;;;;;;;41.50;24.33;;;1.00;99.90;;;;;;5055902;28;20231;-80
2021/12/08 08:37:38;;;;;;;39.57;23.10;;;1.00;99.90;;;;;;5069267;28;20216;-80
2021/12/08 08:40:11;;;;;;;38.63;23.37;;;1.00;99.90;;;;;;5057367;28;20596;-82
2021/12/08 08:42:40;;;;;;;35.77;23.60;;;1.10;99.90;;;;;;5068953;28;20172;-80
2021/12/08 08:45:20;;;;;;;36.17;22.80;;;1.20;99.90;;;;;;5069105;28;20346;-81
2021/12/08 08:47:57;;;;;;;36.03;22.77;;;1.20;99.90;;;;;;5079376;28;20187;-81
2021/12/08 08:50:38;;;;;;;37.40;22.87;;;1.20;99.90;;;;;;5072083;28;20191;-81
2021/12/08 08:53:05;;;;;;;41.20;22.57;;;1.30;99.90;;;;;;5093394;28;20180;-80
2021/12/08 08:55:56;;;;;;;35.53;22.10;;;1.30;99.90;;;;;;5050363;28;20204;-80
2021/12/08 08:58:25;;;;;;;34.43;20.43;;;1.30;99.90;;;;;;5071092;28;20176;-81
2021/12/08 09:00:56;;;;;;;37.17;21.97;;;1.20;99.90;;;;;;5053862;28;20177;-81
2021/12/08 09:03:26;;;;;;;35.73;21.10;;;1.20;99.90;;;;;;5068245;28;20196;-81
2021/12/08 09:06:18;;;;;;;34.77;21.77;;;1.20;99.90;;;;;;5053617;28;20215;-79
2021/12/08 09:08:44;;;;;;;32.20;21.10;;;1.30;99.90;;;;;;5059526;28;20180;-81
2021/12/08 09:11:39;;;;;;;36.50;22.23;;;1.40;99.90;;;;;;5067465;28;20280;-80
2021/12/08 09:14:28;;;;;;;39.60;22.40;;;1.40;99.90;;;;;;5063322;28;20198;-80
2021/12/08 09:17:01;;;;;;;38.80;22.73;;;1.30;99.90;;;;;;5058011;28;20196;-80
2021/12/08 09:19:41;;;;;;;34.93;20.90;;;1.30;99.90;;;;;;5070426;28;20626;-80
2021/12/08 09:22:32;;;;;;;35.57;22.23;;;1.40;99.90;;;;;;5064101;28;20172;-80
2021/12/08 09:25:03;;;;;;;35.80;21.53;;;1.40;99.90;;;;;;5059963;28;20200;-81
2021/12/08 09:27:33;;;;;;;31.50;20.30;;;1.40;99.90;;;;;;5074150;28;20314;-79
2021/12/08 09:30:11;;;;;;;35.37;21.30;;;1.50;99.90;;;;;;5058296;28;20211;-79
2021/12/08 09:32:45;;;;;;;32.47;20.87;;;1.50;99.90;;;;;;5066817;28;20283;-80
2021/12/08 09:35:28;;;;;;;34.77;20.57;;;1.50;99.90;;;;;;5050505;28;20706;-80
2021/12/08 09:38:01;;;;;;;36.10;22.30;;;1.60;99.90;;;;;;5074973;28;20202;-80
2021/12/08 09:40:57;;;;;;;34.20;21.80;;;1.50;99.90;;;;;;5081379;28;20225;-80
2021/12/08 09:43:46;;;;;;;32.67;20.90;;;1.50;99.90;;;;;;5051169;28;20582;-79
2021/12/08 09:46:23;;;;;;;32.97;20.50;;;1.60;99.90;;;;;;5055764;28;20193;-79
2021/12/08 09:48:50;;;;;;;31.63;20.83;;;1.60;99.90;;;;;;5057529;28;20206;-80
2021/12/08 09:51:20;;;;;;;35.37;20.80;;;1.70;99.90;;;;;;5054030;28;20214;-80
2021/12/08 09:53:47;;;;;;;35.67;20.97;;;1.70;99.90;;;;;;5053100;28;20181;-80
2021/12/08 09:56:13;;;;;;;32.63;20.53;;;1.80;99.90;;;;;;5057707;28;20203;-80
2021/12/08 09:58:40;;;;;;;32.73;20.53;;;1.80;99.90;;;;;;5069681;28;20176;-80
2021/12/08 10:01:09;;;;;;;31.03;19.47;;;1.90;99.90;;;;;;5075591;28;20172;-79
2021/12/08 10:03:36;;;;;;;34.00;20.13;;;1.80;99.90;;;;;;5082275;28;20187;-78
2021/12/08 10:06:02;;;;;;;33.57;19.93;;;1.80;99.90;;;;;;5087741;28;20215;-80
2021/12/08 10:08:28;;;;;;;33.47;19.53;;;1.80;99.90;;;;;;5069146;28;20179;-78
2021/12/08 10:10:55;;;;;;;33.30;21.63;;;1.80;99.90;;;;;;5059282;28;20180;-79
2021/12/08 10:13:21;;;;;;;29.30;19.43;;;1.90;99.90;;;;;;5071139;28;20232;-77
2021/12/08 10:15:48;;;;;;;31.57;19.83;;;2.00;99.90;;;;;;5067711;28;20216;-79
2021/12/08 10:18:14;;;;;;;30.07;19.77;;;2.00;99.90;;;;;;5068399;28;20184;-80
2021/12/08 10:20:49;;;;;;;27.30;18.23;;;2.00;99.90;;;;;;5070921;28;20214;-79
2021/12/08 10:23:19;;;;;;;28.10;17.87;;;2.00;99.90;;;;;;5053588;28;20172;-80
2021/12/08 10:25:54;;;;;;;25.47;16.93;;;2.00;99.90;;;;;;5059766;28;20717;-79
2021/12/08 10:28:36;;;;;;;26.27;17.83;;;2.10;99.90;;;;;;5064376;28;20191;-80
2021/12/08 10:31:30;;;;;;;26.00;18.07;;;2.10;99.90;;;;;;5048998;28;20180;-80
2021/12/08 10:39:15;;;;;;;29.47;17.47;;;2.10;99.90;;;;;;5081336;28;20172;-79
2021/12/08 10:41:51;;;;;;;27.47;17.03;;;2.10;99.90;;;;;;5090024;28;20187;-80
2021/12/08 10:44:49;;;;;;;29.20;18.57;;;2.20;99.90;;;;;;5051435;28;20200;-79
2021/12/08 10:47:24;;;;;;;28.47;18.30;;;2.10;99.90;;;;;;5064881;28;20172;-80
2021/12/08 10:55:57;;;;;;;28.70;17.83;;;2.10;99.90;;;;;;5086138;28;20292;-80
2021/12/08 10:58:32;;;;;;;32.03;19.70;;;2.30;99.90;;;;;;5054467;23;20221;-79
2021/12/08 11:01:07;;;;;;;27.37;17.93;;;2.30;99.90;;;;;;5048313;28;20200;-82
2021/12/08 11:03:32;;;;;;;25.10;17.03;;;2.40;99.90;;;;;;5062456;28;20234;-81
2021/12/08 11:06:01;;;;;;;25.73;16.20;;;2.50;99.90;;;;;;5038906;28;20165;-79
2021/12/08 11:08:29;;;;;;;25.50;16.83;;;2.50;99.90;;;;;;5041906;28;20197;-80
2021/12/08 11:11:12;;;;;;;25.57;15.90;;;2.50;99.90;;;;;;5045478;28;20157;-78
2021/12/08 11:13:50;;;;;;;26.37;16.13;;;2.50;99.90;;;;;;5045612;28;20169;-77
2021/12/08 11:16:27;;;;;;;24.63;15.97;;;2.50;99.90;;;;;;5069773;28;20220;-78
2021/12/08 11:19:04;;;;;;;21.23;15.47;;;2.60;99.90;;;;;;5046925;28;20193;-78
2021/12/08 11:21:38;;;;;;;20.87;15.10;;;2.60;99.90;;;;;;5046276;28;20276;-80
2021/12/08 11:24:33;;;;;;;22.93;16.43;;;2.50;99.90;;;;;;5042510;28;20197;-80
2021/12/08 11:27:02;;;;;;;21.37;14.40;;;2.60;99.90;;;;;;5046244;28;20308;-78
2021/12/08 11:29:31;;;;;;;21.50;15.50;;;2.60;99.90;;;;;;5053001;28;20186;-77
2021/12/08 11:32:01;;;;;;;23.53;16.13;;;2.50;99.90;;;;;;5052198;28;20184;-79
2021/12/08 11:34:36;;;;;;;24.87;16.47;;;2.50;99.90;;;;;;5036388;28;20161;-78
2021/12/08 11:37:15;;;;;;;24.50;15.17;;;2.50;99.90;;;;;;5052822;28;20288;-80
2021/12/08 11:39:44;;;;;;;25.03;15.90;;;2.50;99.90;;;;;;5061999;28;20172;-78
2021/12/08 11:42:33;;;;;;;21.30;14.63;;;2.60;99.90;;;;;;5048819;28;20193;-78
2021/12/08 11:45:01;;;;;;;23.17;15.60;;;2.60;99.90;;;;;;5049026;28;20178;-80
2021/12/08 11:47:33;;;;;;;22.10;13.97;;;2.60;99.90;;;;;;5047322;28;20198;-80
2021/12/08 11:50:07;;;;;;;23.67;16.00;;;2.60;99.90;;;;;;5058906;28;20174;-79
2021/12/08 11:52:32;;;;;;;23.20;14.97;;;2.60;99.90;;;;;;5043038;28;20185;-77
2021/12/08 11:55:00;;;;;;;23.63;15.40;;;2.60;99.90;;;;;;5053178;28;20174;-78
2021/12/08 11:57:40;;;;;;;24.10;15.63;;;2.60;99.90;;;;;;5052833;28;20216;-78
2021/12/08 12:00:20;;;;;;;23.73;15.73;;;2.60;99.90;;;;;;5050766;28;20698;-80
2021/12/08 12:02:57;;;;;;;22.73;15.77;;;2.70;99.90;;;;;;5026091;28;20242;-80
2021/12/08 12:05:39;;;;;;;20.40;15.00;;;2.70;99.90;;;;;;5027469;28;20253;-81
2021/12/08 12:08:07;;;;;;;22.60;15.50;;;2.70;99.90;;;;;;5039344;28;20193;-80
2021/12/08 12:10:40;;;;;;;21.70;15.27;;;2.80;99.90;;;;;;5032284;28;20192;-80
2021/12/08 12:13:08;;;;;;;25.13;14.97;;;2.80;99.90;;;;;;5021082;28;21480;-80
2021/12/08 12:15:37;;;;;;;21.13;13.90;;;2.80;99.90;;;;;;5029733;28;20183;-81
2021/12/08 12:18:04;;;;;;;24.20;14.90;;;2.90;99.90;;;;;;5032199;28;20202;-78
2021/12/08 12:20:43;;;;;;;22.20;15.20;;;2.90;99.90;;;;;;5040675;28;20177;-80
2021/12/08 12:23:31;;;;;;;23.10;13.43;;;2.90;99.90;;;;;;5055134;28;20178;-80
2021/12/08 12:26:55;;;;;;;22.60;15.10;;;2.90;99.90;;;;;;5043986;28;20245;-80
2021/12/08 12:29:36;;;;;;;20.47;14.53;;;2.90;99.90;;;;;;4995929;28;20191;-80
2021/12/08 12:32:09;;;;;;;22.10;15.10;;;2.90;99.90;;;;;;4990484;28;20175;-80
2021/12/08 12:34:37;;;;;;;22.33;14.43;;;2.90;99.90;;;;;;5012166;28;20194;-80
2021/12/08 12:37:31;;;;;;;19.27;13.57;;;3.00;99.90;;;;;;5021081;28;20202;-82
2021/12/08 12:39:58;;;;;;;19.43;13.93;;;2.90;99.90;;;;;;5042219;28;20169;-81
2021/12/08 12:42:26;;;;;;;25.07;14.80;;;3.00;99.90;;;;;;5045833;28;20177;-79
2021/12/08 12:45:01;;;;;;;21.33;14.43;;;2.90;99.90;;;;;;5043890;28;20174;-80
2021/12/08 12:47:30;;;;;;;20.77;14.53;;;2.90;99.90;;;;;;5052986;28;20205;-80
2021/12/08 12:50:21;;;;;;;24.43;15.03;;;2.90;99.90;;;;;;5036876;28;20173;-81
2021/12/08 12:52:56;;;;;;;22.10;15.07;;;2.80;99.90;;;;;;5053126;28;20223;-80
2021/12/08 12:55:36;;;;;;;26.37;14.80;;;2.80;99.90;;;;;;5022079;28;20264;-81
2021/12/08 12:58:03;;;;;;;26.20;15.73;;;2.80;99.90;;;;;;5034089;28;20564;-79
2021/12/08 13:00:49;;;;;;;22.87;13.50;;;2.90;99.90;;;;;;5010861;28;20626;-80
2021/12/08 13:03:47;;;;;;;22.23;15.27;;;2.90;99.90;;;;;;5028089;28;20170;-79
2021/12/08 13:06:36;;;;;;;23.83;15.60;;;2.80;99.90;;;;;;5036305;28;20217;-80
2021/12/08 13:09:03;;;;;;;25.57;15.40;;;2.70;99.90;;;;;;5002145;28;20222;-81
2021/12/08 13:11:59;;;;;;;24.10;17.03;;;2.80;99.90;;;;;;5015263;28;20178;-81
2021/12/08 13:14:29;;;;;;;23.40;15.53;;;2.80;99.90;;;;;;5033201;28;20251;-81
2021/12/08 13:17:16;;;;;;;25.30;15.10;;;2.90;99.90;;;;;;5014877;28;20202;-81
2021/12/08 13:19:50;;;;;;;23.20;14.40;;;2.80;99.90;;;;;;5025613;28;20688;-80
2021/12/08 13:23:01;;;;;;;23.20;15.80;;;2.90;99.90;;;;;;5013328;28;20178;-80
2021/12/08 13:28:56;;;;;;;25.23;15.03;;;2.80;99.90;;;;;;5037656;28;20197;-81
2021/12/08 13:32:10;;;;;;;24.20;14.63;;;2.90;99.90;;;;;;5014356;28;20178;-79
2021/12/08 13:34:23;;;;;;;25.43;15.13;;;2.90;99.90;;;;;;5014365;28;20186;-80
2021/12/08 13:36:50;;;;;;;23.10;14.83;;;2.90;99.90;;;;;;5027434;28;20674;-80
2021/12/08 13:39:30;;;;;;;24.70;15.83;;;2.90;99.90;;;;;;5019511;28;20234;-80
2021/12/08 13:42:08;;;;;;;24.50;16.00;;;2.80;99.90;;;;;;5023858;28;20196;-80
2021/12/08 13:44:36;;;;;;;23.00;15.07;;;2.80;99.90;;;;;;5031053;28;20242;-78
2021/12/08 13:47:07;;;;;;;22.73;15.33;;;2.90;99.90;;;;;;5024660;28;20170;-79
2021/12/08 13:49:48;;;;;;;26.67;15.90;;;2.80;99.90;;;;;;5018350;28;20261;-80
2021/12/08 13:52:24;;;;;;;24.30;15.37;;;2.80;99.90;;;;;;5012239;28;21089;-80
2021/12/08 13:54:52;;;;;;;28.80;17.10;;;2.80;99.90;;;;;;5024550;28;20186;-80
2021/12/08 13:57:42;;;;;;;24.13;15.97;;;2.80;99.90;;;;;;5028837;28;20210;-80
2021/12/08 14:00:11;;;;;;;26.60;16.60;;;2.70;99.90;;;;;;5043029;28;20174;-80
2021/12/08 14:02:39;;;;;;;28.53;16.27;;;2.80;99.90;;;;;;5047262;28;20178;-79